sensor_id;sensor_type;location;lat;lon;timestamp;P1;durP1;ratioP1;P2;durP2;ratioP2
9102;SDS011;4587;51.434;6.788;2024-01-27T00:01:26;16.90;;;6.57;;
9102;SDS011;4587;51.434;6.788;2024-01-27T00:03:51;16.57;;;5.03;;
9102;SDS011;4587;51.434;6.788;2024-01-27T00:06:19;17.30;;;5.13;;
9102;SDS011;4587;51.434;6.788;2024-01-27T00:08:44;16.07;;;4.83;;
9102;SDS011;4587;51.434;6.788;2024-01-27T00:11:10;15.37;;;4.50;;
9102;SDS011;4587;51.434;6.788;2024-01-27T00:13:36;13.93;;;5.33;;
9102;SDS011;4587;51.434;6.788;2024-01-27T00:16:02;13.80;;;5.13;;
9102;SDS011;4587;51.434;6.788;2024-01-27T00:18:27;19.83;;;6.40;;
9102;SDS011;4587;51.434;6.788;2024-01-27T00:20:53;18.90;;;5.47;;
9102;SDS011;4587;51.434;6.788;2024-01-27T00:23:19;17.63;;;5.30;;
9102;SDS011;4587;51.434;6.788;2024-01-27T00:25:44;16.60;;;5.67;;
9102;SDS011;4587;51.434;6.788;2024-01-27T00:28:10;14.33;;;5.13;;
9102;SDS011;4587;51.434;6.788;2024-01-27T00:30:35;19.80;;;5.90;;
9102;SDS011;4587;51.434;6.788;2024-01-27T00:33:01;18.47;;;5.10;;
9102;SDS011;4587;51.434;6.788;2024-01-27T00:35:27;12.87;;;5.30;;
9102;SDS011;4587;51.434;6.788;2024-01-27T00:37:52;16.73;;;5.03;;
9102;SDS011;4587;51.434;6.788;2024-01-27T00:40:18;13.90;;;5.00;;
9102;SDS011;4587;51.434;6.788;2024-01-27T00:42:43;15.00;;;5.47;;
9102;SDS011;4587;51.434;6.788;2024-01-27T00:45:09;16.10;;;4.90;;
9102;SDS011;4587;51.434;6.788;2024-01-27T00:47:35;18.77;;;5.00;;
9102;SDS011;4587;51.434;6.788;2024-01-27T00:50:00;16.20;;;4.23;;
9102;SDS011;4587;51.434;6.788;2024-01-27T00:52:26;15.87;;;4.50;;
9102;SDS011;4587;51.434;6.788;2024-01-27T00:54:51;15.70;;;4.90;;
9102;SDS011;4587;51.434;6.788;2024-01-27T00:57:17;17.77;;;4.53;;
9102;SDS011;4587;51.434;6.788;2024-01-27T00:59:43;14.80;;;4.57;;
9102;SDS011;4587;51.434;6.788;2024-01-27T01:02:08;15.07;;;4.93;;
9102;SDS011;4587;51.434;6.788;2024-01-27T01:04:34;16.17;;;5.83;;
9102;SDS011;4587;51.434;6.788;2024-01-27T01:06:59;17.50;;;4.80;;
9102;SDS011;4587;51.434;6.788;2024-01-27T01:09:25;15.63;;;6.10;;
9102;SDS011;4587;51.434;6.788;2024-01-27T01:11:50;11.73;;;4.87;;
9102;SDS011;4587;51.434;6.788;2024-01-27T01:14:16;14.47;;;5.80;;
9102;SDS011;4587;51.434;6.788;2024-01-27T01:16:42;23.23;;;5.80;;
9102;SDS011;4587;51.434;6.788;2024-01-27T01:19:07;10.93;;;4.43;;
9102;SDS011;4587;51.434;6.788;2024-01-27T01:21:33;13.57;;;4.23;;
9102;SDS011;4587;51.434;6.788;2024-01-27T01:23:59;15.00;;;4.43;;
9102;SDS011;4587;51.434;6.788;2024-01-27T01:26:25;15.10;;;4.67;;
9102;SDS011;4587;51.434;6.788;2024-01-27T01:28:50;16.13;;;5.60;;
9102;SDS011;4587;51.434;6.788;2024-01-27T01:31:17;18.20;;;4.97;;
9102;SDS011;4587;51.434;6.788;2024-01-27T01:33:42;13.50;;;5.10;;
9102;SDS011;4587;51.434;6.788;2024-01-27T01:36:08;18.70;;;5.90;;
9102;SDS011;4587;51.434;6.788;2024-01-27T01:38:34;16.03;;;5.30;;
9102;SDS011;4587;51.434;6.788;2024-01-27T01:41:00;16.30;;;4.93;;
9102;SDS011;4587;51.434;6.788;2024-01-27T01:43:25;17.57;;;5.73;;
9102;SDS011;4587;51.434;6.788;2024-01-27T01:45:51;18.93;;;5.63;;
9102;SDS011;4587;51.434;6.788;2024-01-27T01:48:18;15.60;;;5.40;;
9102;SDS011;4587;51.434;6.788;2024-01-27T01:50:45;18.60;;;6.77;;
9102;SDS011;4587;51.434;6.788;2024-01-27T01:53:11;23.47;;;6.37;;
9102;SDS011;4587;51.434;6.788;2024-01-27T01:55:37;15.50;;;5.50;;
9102;SDS011;4587;51.434;6.788;2024-01-27T01:58:04;16.00;;;5.50;;
9102;SDS011;4587;51.434;6.788;2024-01-27T02:00:30;16.80;;;4.80;;
9102;SDS011;4587;51.434;6.788;2024-01-27T02:02:56;18.50;;;6.43;;
9102;SDS011;4587;51.434;6.788;2024-01-27T02:05:22;13.10;;;5.40;;
9102;SDS011;4587;51.434;6.788;2024-01-27T02:07:47;17.87;;;5.00;;
9102;SDS011;4587;51.434;6.788;2024-01-27T02:10:13;15.97;;;6.03;;
9102;SDS011;4587;51.434;6.788;2024-01-27T02:12:41;13.63;;;4.70;;
9102;SDS011;4587;51.434;6.788;2024-01-27T02:15:13;18.10;;;6.10;;
9102;SDS011;4587;51.434;6.788;2024-01-27T02:17:39;21.20;;;5.40;;
9102;SDS011;4587;51.434;6.788;2024-01-27T02:20:05;22.63;;;5.67;;
9102;SDS011;4587;51.434;6.788;2024-01-27T02:22:32;21.00;;;4.97;;
9102;SDS011;4587;51.434;6.788;2024-01-27T02:24:58;18.20;;;5.20;;
9102;SDS011;4587;51.434;6.788;2024-01-27T02:27:24;17.63;;;5.40;;
9102;SDS011;4587;51.434;6.788;2024-01-27T02:29:50;18.07;;;5.17;;
9102;SDS011;4587;51.434;6.788;2024-01-27T02:32:15;15.03;;;5.23;;
9102;SDS011;4587;51.434;6.788;2024-01-27T02:34:41;18.10;;;4.70;;
9102;SDS011;4587;51.434;6.788;2024-01-27T02:37:06;11.43;;;4.93;;
9102;SDS011;4587;51.434;6.788;2024-01-27T02:39:32;12.30;;;4.97;;
9102;SDS011;4587;51.434;6.788;2024-01-27T02:41:57;14.80;;;4.73;;
9102;SDS011;4587;51.434;6.788;2024-01-27T02:44:23;17.23;;;5.87;;
9102;SDS011;4587;51.434;6.788;2024-01-27T02:46:48;16.00;;;5.70;;
9102;SDS011;4587;51.434;6.788;2024-01-27T02:49:14;16.27;;;5.00;;
9102;SDS011;4587;51.434;6.788;2024-01-27T02:51:39;16.50;;;4.87;;
9102;SDS011;4587;51.434;6.788;2024-01-27T02:54:05;16.37;;;5.20;;
9102;SDS011;4587;51.434;6.788;2024-01-27T02:56:30;14.20;;;5.20;;
9102;SDS011;4587;51.434;6.788;2024-01-27T02:58:56;16.60;;;5.37;;
9102;SDS011;4587;51.434;6.788;2024-01-27T03:01:21;14.70;;;5.67;;
9102;SDS011;4587;51.434;6.788;2024-01-27T03:03:47;18.23;;;4.73;;
9102;SDS011;4587;51.434;6.788;2024-01-27T03:06:12;17.80;;;6.40;;
9102;SDS011;4587;51.434;6.788;2024-01-27T03:08:38;15.73;;;5.03;;
9102;SDS011;4587;51.434;6.788;2024-01-27T03:11:03;18.20;;;6.47;;
9102;SDS011;4587;51.434;6.788;2024-01-27T03:13:29;16.33;;;5.30;;
9102;SDS011;4587;51.434;6.788;2024-01-27T03:15:55;15.10;;;5.20;;
9102;SDS011;4587;51.434;6.788;2024-01-27T03:18:21;16.10;;;4.97;;
9102;SDS011;4587;51.434;6.788;2024-01-27T03:20:46;13.13;;;5.10;;
9102;SDS011;4587;51.434;6.788;2024-01-27T03:23:12;20.10;;;5.17;;
9102;SDS011;4587;51.434;6.788;2024-01-27T03:25:38;13.43;;;5.30;;
9102;SDS011;4587;51.434;6.788;2024-01-27T03:28:03;15.97;;;5.40;;
9102;SDS011;4587;51.434;6.788;2024-01-27T03:30:29;14.17;;;6.20;;
9102;SDS011;4587;51.434;6.788;2024-01-27T03:32:54;18.03;;;6.40;;
9102;SDS011;4587;51.434;6.788;2024-01-27T03:35:20;15.47;;;5.13;;
9102;SDS011;4587;51.434;6.788;2024-01-27T03:37:45;14.17;;;5.27;;
9102;SDS011;4587;51.434;6.788;2024-01-27T03:40:11;17.00;;;5.97;;
9102;SDS011;4587;51.434;6.788;2024-01-27T03:42:37;17.17;;;5.83;;
9102;SDS011;4587;51.434;6.788;2024-01-27T03:45:02;17.07;;;6.30;;
9102;SDS011;4587;51.434;6.788;2024-01-27T03:47:28;18.57;;;5.40;;
9102;SDS011;4587;51.434;6.788;2024-01-27T03:49:54;15.43;;;5.13;;
9102;SDS011;4587;51.434;6.788;2024-01-27T03:52:19;15.43;;;5.60;;
9102;SDS011;4587;51.434;6.788;2024-01-27T03:54:45;14.23;;;5.07;;
9102;SDS011;4587;51.434;6.788;2024-01-27T03:57:10;13.13;;;5.20;;
9102;SDS011;4587;51.434;6.788;2024-01-27T03:59:36;15.57;;;4.93;;
9102;SDS011;4587;51.434;6.788;2024-01-27T04:02:01;16.53;;;5.17;;
9102;SDS011;4587;51.434;6.788;2024-01-27T04:04:27;17.10;;;5.57;;
9102;SDS011;4587;51.434;6.788;2024-01-27T04:06:52;14.23;;;6.03;;
9102;SDS011;4587;51.434;6.788;2024-01-27T04:09:18;19.03;;;5.80;;
9102;SDS011;4587;51.434;6.788;2024-01-27T04:11:43;16.83;;;5.80;;
9102;SDS011;4587;51.434;6.788;2024-01-27T04:14:09;17.70;;;5.60;;
9102;SDS011;4587;51.434;6.788;2024-01-27T04:16:35;15.10;;;5.30;;
9102;SDS011;4587;51.434;6.788;2024-01-27T04:19:00;16.07;;;5.60;;
9102;SDS011;4587;51.434;6.788;2024-01-27T04:21:26;16.33;;;6.07;;
9102;SDS011;4587;51.434;6.788;2024-01-27T04:23:51;16.40;;;5.83;;
9102;SDS011;4587;51.434;6.788;2024-01-27T04:26:17;15.67;;;5.53;;
9102;SDS011;4587;51.434;6.788;2024-01-27T04:28:42;15.70;;;5.10;;
9102;SDS011;4587;51.434;6.788;2024-01-27T04:31:08;16.03;;;6.33;;
9102;SDS011;4587;51.434;6.788;2024-01-27T04:33:34;13.67;;;5.27;;
9102;SDS011;4587;51.434;6.788;2024-01-27T04:35:59;11.53;;;5.70;;
9102;SDS011;4587;51.434;6.788;2024-01-27T04:38:25;13.03;;;5.57;;
9102;SDS011;4587;51.434;6.788;2024-01-27T04:40:50;14.30;;;5.67;;
9102;SDS011;4587;51.434;6.788;2024-01-27T04:43:17;14.30;;;5.90;;
9102;SDS011;4587;51.434;6.788;2024-01-27T04:45:45;18.23;;;6.27;;
9102;SDS011;4587;51.434;6.788;2024-01-27T04:48:10;15.53;;;5.03;;
9102;SDS011;4587;51.434;6.788;2024-01-27T04:50:36;16.40;;;6.70;;
9102;SDS011;4587;51.434;6.788;2024-01-27T04:53:02;18.03;;;6.40;;
9102;SDS011;4587;51.434;6.788;2024-01-27T04:55:27;12.73;;;5.93;;
9102;SDS011;4587;51.434;6.788;2024-01-27T04:57:53;13.40;;;5.50;;
9102;SDS011;4587;51.434;6.788;2024-01-27T05:00:19;19.73;;;5.60;;
9102;SDS011;4587;51.434;6.788;2024-01-27T05:02:45;20.30;;;5.67;;
9102;SDS011;4587;51.434;6.788;2024-01-27T05:05:10;14.77;;;4.77;;
9102;SDS011;4587;51.434;6.788;2024-01-27T05:07:36;14.33;;;5.37;;
9102;SDS011;4587;51.434;6.788;2024-01-27T05:10:05;17.57;;;6.07;;
9102;SDS011;4587;51.434;6.788;2024-01-27T05:12:31;13.07;;;5.20;;
9102;SDS011;4587;51.434;6.788;2024-01-27T05:14:56;18.33;;;6.10;;
9102;SDS011;4587;51.434;6.788;2024-01-27T05:17:22;17.17;;;6.57;;
9102;SDS011;4587;51.434;6.788;2024-01-27T05:19:49;14.57;;;6.00;;
9102;SDS011;4587;51.434;6.788;2024-01-27T05:22:14;14.43;;;6.00;;
9102;SDS011;4587;51.434;6.788;2024-01-27T05:24:40;16.30;;;6.27;;
9102;SDS011;4587;51.434;6.788;2024-01-27T05:27:05;18.37;;;5.53;;
9102;SDS011;4587;51.434;6.788;2024-01-27T05:29:31;17.10;;;5.90;;
9102;SDS011;4587;51.434;6.788;2024-01-27T05:31:57;15.60;;;5.80;;
9102;SDS011;4587;51.434;6.788;2024-01-27T05:34:22;17.70;;;6.60;;
9102;SDS011;4587;51.434;6.788;2024-01-27T05:36:48;13.83;;;5.87;;
9102;SDS011;4587;51.434;6.788;2024-01-27T05:39:13;12.97;;;6.10;;
9102;SDS011;4587;51.434;6.788;2024-01-27T05:41:39;18.07;;;5.33;;
9102;SDS011;4587;51.434;6.788;2024-01-27T05:44:04;14.17;;;6.20;;
9102;SDS011;4587;51.434;6.788;2024-01-27T05:46:30;21.23;;;6.47;;
9102;SDS011;4587;51.434;6.788;2024-01-27T05:48:55;18.80;;;6.07;;
9102;SDS011;4587;51.434;6.788;2024-01-27T05:51:26;17.13;;;6.10;;
9102;SDS011;4587;51.434;6.788;2024-01-27T05:53:52;14.90;;;5.50;;
9102;SDS011;4587;51.434;6.788;2024-01-27T05:56:18;15.03;;;5.47;;
9102;SDS011;4587;51.434;6.788;2024-01-27T05:58:46;14.43;;;5.80;;
9102;SDS011;4587;51.434;6.788;2024-01-27T06:01:12;15.73;;;5.80;;
9102;SDS011;4587;51.434;6.788;2024-01-27T06:03:38;13.83;;;5.90;;
9102;SDS011;4587;51.434;6.788;2024-01-27T06:06:06;11.90;;;5.10;;
9102;SDS011;4587;51.434;6.788;2024-01-27T06:08:32;18.33;;;5.87;;
9102;SDS011;4587;51.434;6.788;2024-01-27T06:10:57;14.27;;;6.00;;
9102;SDS011;4587;51.434;6.788;2024-01-27T06:13:23;21.83;;;5.90;;
9102;SDS011;4587;51.434;6.788;2024-01-27T06:15:48;15.23;;;5.77;;
9102;SDS011;4587;51.434;6.788;2024-01-27T06:18:14;15.20;;;5.63;;
9102;SDS011;4587;51.434;6.788;2024-01-27T06:20:39;13.40;;;5.77;;
9102;SDS011;4587;51.434;6.788;2024-01-27T06:23:05;20.27;;;5.93;;
9102;SDS011;4587;51.434;6.788;2024-01-27T06:25:31;19.63;;;5.70;;
9102;SDS011;4587;51.434;6.788;2024-01-27T06:27:57;13.40;;;5.43;;
9102;SDS011;4587;51.434;6.788;2024-01-27T06:30:22;14.27;;;5.30;;
9102;SDS011;4587;51.434;6.788;2024-01-27T06:32:48;19.60;;;5.93;;
9102;SDS011;4587;51.434;6.788;2024-01-27T06:35:14;11.13;;;5.23;;
9102;SDS011;4587;51.434;6.788;2024-01-27T06:37:39;20.83;;;5.70;;
9102;SDS011;4587;51.434;6.788;2024-01-27T06:40:05;19.00;;;6.37;;
9102;SDS011;4587;51.434;6.788;2024-01-27T06:42:32;17.40;;;6.57;;
9102;SDS011;4587;51.434;6.788;2024-01-27T06:44:57;13.33;;;5.10;;
9102;SDS011;4587;51.434;6.788;2024-01-27T06:47:23;18.97;;;6.53;;
9102;SDS011;4587;51.434;6.788;2024-01-27T06:49:49;18.63;;;5.57;;
9102;SDS011;4587;51.434;6.788;2024-01-27T06:52:14;15.17;;;5.07;;
9102;SDS011;4587;51.434;6.788;2024-01-27T06:54:40;20.23;;;6.57;;
9102;SDS011;4587;51.434;6.788;2024-01-27T06:57:17;14.97;;;5.60;;
9102;SDS011;4587;51.434;6.788;2024-01-27T06:59:49;19.03;;;5.73;;
9102;SDS011;4587;51.434;6.788;2024-01-27T07:02:26;14.83;;;5.93;;
9102;SDS011;4587;51.434;6.788;2024-01-27T07:04:53;22.87;;;5.73;;
9102;SDS011;4587;51.434;6.788;2024-01-27T07:07:21;17.13;;;5.53;;
9102;SDS011;4587;51.434;6.788;2024-01-27T07:09:51;19.77;;;6.20;;
9102;SDS011;4587;51.434;6.788;2024-01-27T07:12:20;17.23;;;5.57;;
9102;SDS011;4587;51.434;6.788;2024-01-27T07:14:45;19.43;;;5.83;;
9102;SDS011;4587;51.434;6.788;2024-01-27T07:17:11;17.87;;;5.90;;
9102;SDS011;4587;51.434;6.788;2024-01-27T07:19:36;14.03;;;5.57;;
9102;SDS011;4587;51.434;6.788;2024-01-27T07:22:02;14.37;;;5.13;;
9102;SDS011;4587;51.434;6.788;2024-01-27T07:24:31;16.83;;;5.80;;
9102;SDS011;4587;51.434;6.788;2024-01-27T07:26:57;20.70;;;5.60;;
9102;SDS011;4587;51.434;6.788;2024-01-27T07:29:24;14.67;;;5.87;;
9102;SDS011;4587;51.434;6.788;2024-01-27T07:31:50;22.70;;;5.60;;
9102;SDS011;4587;51.434;6.788;2024-01-27T07:34:15;14.67;;;6.07;;
9102;SDS011;4587;51.434;6.788;2024-01-27T07:36:41;15.67;;;5.40;;
9102;SDS011;4587;51.434;6.788;2024-01-27T07:39:07;15.80;;;5.70;;
9102;SDS011;4587;51.434;6.788;2024-01-27T07:41:32;15.30;;;5.63;;
9102;SDS011;4587;51.434;6.788;2024-01-27T07:44:06;18.47;;;6.50;;
9102;SDS011;4587;51.434;6.788;2024-01-27T07:46:36;18.30;;;6.10;;
9102;SDS011;4587;51.434;6.788;2024-01-27T07:49:02;14.60;;;5.43;;
9102;SDS011;4587;51.434;6.788;2024-01-27T07:51:28;14.63;;;5.57;;
9102;SDS011;4587;51.434;6.788;2024-01-27T07:53:54;17.17;;;5.87;;
9102;SDS011;4587;51.434;6.788;2024-01-27T07:56:20;19.10;;;5.97;;
9102;SDS011;4587;51.434;6.788;2024-01-27T07:58:45;16.27;;;5.57;;
9102;SDS011;4587;51.434;6.788;2024-01-27T08:01:14;14.07;;;5.33;;
9102;SDS011;4587;51.434;6.788;2024-01-27T08:03:40;20.80;;;5.87;;
9102;SDS011;4587;51.434;6.788;2024-01-27T08:06:06;19.47;;;6.43;;
9102;SDS011;4587;51.434;6.788;2024-01-27T08:08:35;20.20;;;5.80;;
9102;SDS011;4587;51.434;6.788;2024-01-27T08:11:00;13.70;;;5.80;;
9102;SDS011;4587;51.434;6.788;2024-01-27T08:13:26;13.50;;;5.87;;
9102;SDS011;4587;51.434;6.788;2024-01-27T08:15:51;15.73;;;5.67;;
9102;SDS011;4587;51.434;6.788;2024-01-27T08:18:17;17.17;;;5.87;;
9102;SDS011;4587;51.434;6.788;2024-01-27T08:20:42;20.33;;;6.40;;
9102;SDS011;4587;51.434;6.788;2024-01-27T08:23:08;13.03;;;5.67;;
9102;SDS011;4587;51.434;6.788;2024-01-27T08:25:34;19.97;;;6.00;;
9102;SDS011;4587;51.434;6.788;2024-01-27T08:27:59;19.30;;;6.17;;
9102;SDS011;4587;51.434;6.788;2024-01-27T08:30:25;14.97;;;5.43;;
9102;SDS011;4587;51.434;6.788;2024-01-27T08:32:50;18.63;;;5.30;;
9102;SDS011;4587;51.434;6.788;2024-01-27T08:35:16;17.13;;;5.63;;
9102;SDS011;4587;51.434;6.788;2024-01-27T08:37:41;19.43;;;6.20;;
9102;SDS011;4587;51.434;6.788;2024-01-27T08:40:07;17.70;;;5.93;;
9102;SDS011;4587;51.434;6.788;2024-01-27T08:42:33;19.33;;;6.07;;
9102;SDS011;4587;51.434;6.788;2024-01-27T08:44:59;13.63;;;5.33;;
9102;SDS011;4587;51.434;6.788;2024-01-27T08:47:25;16.07;;;5.40;;
9102;SDS011;4587;51.434;6.788;2024-01-27T08:49:50;13.80;;;5.50;;
9102;SDS011;4587;51.434;6.788;2024-01-27T08:52:16;17.43;;;5.47;;
9102;SDS011;4587;51.434;6.788;2024-01-27T08:54:41;18.20;;;6.73;;
9102;SDS011;4587;51.434;6.788;2024-01-27T08:57:07;14.67;;;5.07;;
9102;SDS011;4587;51.434;6.788;2024-01-27T08:59:32;16.00;;;5.83;;
9102;SDS011;4587;51.434;6.788;2024-01-27T09:01:58;16.57;;;5.47;;
9102;SDS011;4587;51.434;6.788;2024-01-27T09:04:24;19.30;;;5.73;;
9102;SDS011;4587;51.434;6.788;2024-01-27T09:06:49;17.13;;;5.03;;
9102;SDS011;4587;51.434;6.788;2024-01-27T09:09:15;13.80;;;5.50;;
9102;SDS011;4587;51.434;6.788;2024-01-27T09:11:40;16.13;;;6.43;;
9102;SDS011;4587;51.434;6.788;2024-01-27T09:14:06;17.43;;;5.87;;
9102;SDS011;4587;51.434;6.788;2024-01-27T09:16:32;15.73;;;5.60;;
9102;SDS011;4587;51.434;6.788;2024-01-27T09:18:58;15.27;;;5.67;;
9102;SDS011;4587;51.434;6.788;2024-01-27T09:21:24;14.77;;;5.47;;
9102;SDS011;4587;51.434;6.788;2024-01-27T09:23:54;20.97;;;5.90;;
9102;SDS011;4587;51.434;6.788;2024-01-27T09:26:19;15.87;;;5.77;;
9102;SDS011;4587;51.434;6.788;2024-01-27T09:28:45;16.37;;;6.10;;
9102;SDS011;4587;51.434;6.788;2024-01-27T09:31:18;15.67;;;5.53;;
9102;SDS011;4587;51.434;6.788;2024-01-27T09:33:51;13.40;;;5.07;;
9102;SDS011;4587;51.434;6.788;2024-01-27T09:36:18;18.90;;;5.63;;
9102;SDS011;4587;51.434;6.788;2024-01-27T09:38:44;21.80;;;5.77;;
9102;SDS011;4587;51.434;6.788;2024-01-27T09:41:11;15.93;;;6.10;;
9102;SDS011;4587;51.434;6.788;2024-01-27T09:43:39;14.90;;;5.97;;
9102;SDS011;4587;51.434;6.788;2024-01-27T09:46:09;18.27;;;6.07;;
9102;SDS011;4587;51.434;6.788;2024-01-27T09:48:35;18.10;;;5.73;;
9102;SDS011;4587;51.434;6.788;2024-01-27T09:51:01;25.50;;;6.53;;
9102;SDS011;4587;51.434;6.788;2024-01-27T09:53:28;17.70;;;6.20;;
9102;SDS011;4587;51.434;6.788;2024-01-27T09:55:54;14.07;;;5.40;;
9102;SDS011;4587;51.434;6.788;2024-01-27T09:58:23;12.83;;;5.50;;
9102;SDS011;4587;51.434;6.788;2024-01-27T10:00:52;15.67;;;5.70;;
9102;SDS011;4587;51.434;6.788;2024-01-27T10:03:20;19.23;;;6.03;;
9102;SDS011;4587;51.434;6.788;2024-01-27T10:05:47;17.83;;;5.43;;
9102;SDS011;4587;51.434;6.788;2024-01-27T10:08:13;15.63;;;5.33;;
9102;SDS011;4587;51.434;6.788;2024-01-27T10:10:39;19.73;;;5.80;;
9102;SDS011;4587;51.434;6.788;2024-01-27T10:13:04;17.40;;;6.17;;
9102;SDS011;4587;51.434;6.788;2024-01-27T10:15:31;18.50;;;6.33;;
9102;SDS011;4587;51.434;6.788;2024-01-27T10:18:06;16.23;;;5.80;;
9102;SDS011;4587;51.434;6.788;2024-01-27T10:20:32;20.33;;;6.43;;
9102;SDS011;4587;51.434;6.788;2024-01-27T10:22:59;15.87;;;6.17;;
9102;SDS011;4587;51.434;6.788;2024-01-27T10:25:39;20.77;;;6.50;;
9102;SDS011;4587;51.434;6.788;2024-01-27T10:28:06;22.10;;;6.57;;
9102;SDS011;4587;51.434;6.788;2024-01-27T10:30:32;15.40;;;6.30;;
9102;SDS011;4587;51.434;6.788;2024-01-27T10:32:58;19.80;;;6.37;;
9102;SDS011;4587;51.434;6.788;2024-01-27T10:35:24;18.30;;;6.60;;
9102;SDS011;4587;51.434;6.788;2024-01-27T10:37:52;15.70;;;6.10;;
9102;SDS011;4587;51.434;6.788;2024-01-27T10:40:19;13.37;;;5.80;;
9102;SDS011;4587;51.434;6.788;2024-01-27T10:42:45;18.10;;;6.67;;
9102;SDS011;4587;51.434;6.788;2024-01-27T10:45:11;18.73;;;6.50;;
9102;SDS011;4587;51.434;6.788;2024-01-27T10:47:37;20.73;;;7.10;;
9102;SDS011;4587;51.434;6.788;2024-01-27T10:50:04;19.73;;;6.80;;
9102;SDS011;4587;51.434;6.788;2024-01-27T10:52:36;20.47;;;7.33;;
9102;SDS011;4587;51.434;6.788;2024-01-27T10:55:04;21.83;;;7.37;;
9102;SDS011;4587;51.434;6.788;2024-01-27T10:57:35;22.57;;;7.20;;
9102;SDS011;4587;51.434;6.788;2024-01-27T11:00:02;18.50;;;7.57;;
9102;SDS011;4587;51.434;6.788;2024-01-27T11:02:34;23.73;;;8.30;;
9102;SDS011;4587;51.434;6.788;2024-01-27T11:05:04;25.03;;;8.47;;
9102;SDS011;4587;51.434;6.788;2024-01-27T11:07:31;22.50;;;8.90;;
9102;SDS011;4587;51.434;6.788;2024-01-27T11:09:58;24.97;;;9.10;;
9102;SDS011;4587;51.434;6.788;2024-01-27T11:12:23;18.77;;;8.27;;
9102;SDS011;4587;51.434;6.788;2024-01-27T11:14:50;19.73;;;8.47;;
9102;SDS011;4587;51.434;6.788;2024-01-27T11:17:17;20.23;;;8.30;;
9102;SDS011;4587;51.434;6.788;2024-01-27T11:19:46;24.33;;;7.97;;
9102;SDS011;4587;51.434;6.788;2024-01-27T11:22:23;20.53;;;8.97;;
9102;SDS011;4587;51.434;6.788;2024-01-27T11:24:51;21.67;;;7.47;;
9102;SDS011;4587;51.434;6.788;2024-01-27T11:27:17;26.07;;;8.43;;
9102;SDS011;4587;51.434;6.788;2024-01-27T11:29:48;16.10;;;7.30;;
9102;SDS011;4587;51.434;6.788;2024-01-27T11:32:14;23.87;;;8.17;;
9102;SDS011;4587;51.434;6.788;2024-01-27T11:34:43;17.93;;;6.93;;
9102;SDS011;4587;51.434;6.788;2024-01-27T11:37:13;17.27;;;7.50;;
9102;SDS011;4587;51.434;6.788;2024-01-27T11:39:40;24.93;;;10.07;;
9102;SDS011;4587;51.434;6.788;2024-01-27T11:42:06;16.87;;;7.33;;
9102;SDS011;4587;51.434;6.788;2024-01-27T11:44:33;22.10;;;7.00;;
9102;SDS011;4587;51.434;6.788;2024-01-27T11:47:02;21.30;;;8.40;;
9102;SDS011;4587;51.434;6.788;2024-01-27T11:49:28;16.40;;;7.03;;
9102;SDS011;4587;51.434;6.788;2024-01-27T11:51:54;17.43;;;7.17;;
9102;SDS011;4587;51.434;6.788;2024-01-27T11:54:20;18.93;;;7.10;;
9102;SDS011;4587;51.434;6.788;2024-01-27T11:56:45;23.50;;;7.03;;
9102;SDS011;4587;51.434;6.788;2024-01-27T11:59:11;18.23;;;6.67;;
9102;SDS011;4587;51.434;6.788;2024-01-27T12:01:37;19.10;;;6.90;;
9102;SDS011;4587;51.434;6.788;2024-01-27T12:04:06;17.43;;;7.03;;
9102;SDS011;4587;51.434;6.788;2024-01-27T12:06:34;17.10;;;6.73;;
9102;SDS011;4587;51.434;6.788;2024-01-27T12:08:59;19.83;;;6.10;;
9102;SDS011;4587;51.434;6.788;2024-01-27T12:11:25;17.60;;;7.50;;
9102;SDS011;4587;51.434;6.788;2024-01-27T12:13:52;17.27;;;7.13;;
9102;SDS011;4587;51.434;6.788;2024-01-27T12:16:18;14.70;;;6.40;;
9102;SDS011;4587;51.434;6.788;2024-01-27T12:18:46;16.50;;;6.53;;
9102;SDS011;4587;51.434;6.788;2024-01-27T12:21:12;16.87;;;6.07;;
9102;SDS011;4587;51.434;6.788;2024-01-27T12:23:54;13.97;;;5.80;;
9102;SDS011;4587;51.434;6.788;2024-01-27T12:26:27;13.40;;;5.83;;
9102;SDS011;4587;51.434;6.788;2024-01-27T12:28:54;16.73;;;6.63;;
9102;SDS011;4587;51.434;6.788;2024-01-27T12:31:23;17.77;;;6.27;;
9102;SDS011;4587;51.434;6.788;2024-01-27T12:33:49;15.07;;;6.10;;
9102;SDS011;4587;51.434;6.788;2024-01-27T12:36:16;16.40;;;5.83;;
9102;SDS011;4587;51.434;6.788;2024-01-27T12:38:46;12.70;;;5.23;;
9102;SDS011;4587;51.434;6.788;2024-01-27T12:41:25;16.23;;;5.67;;
9102;SDS011;4587;51.434;6.788;2024-01-27T12:43:52;16.17;;;5.47;;
9102;SDS011;4587;51.434;6.788;2024-01-27T12:46:20;18.27;;;5.00;;
9102;SDS011;4587;51.434;6.788;2024-01-27T12:48:46;11.87;;;4.97;;
9102;SDS011;4587;51.434;6.788;2024-01-27T12:53:42;13.50;;;4.80;;
9102;SDS011;4587;51.434;6.788;2024-01-27T12:56:09;12.20;;;4.63;;
9102;SDS011;4587;51.434;6.788;2024-01-27T12:58:36;15.07;;;4.60;;
9102;SDS011;4587;51.434;6.788;2024-01-27T13:01:02;16.00;;;5.00;;
9102;SDS011;4587;51.434;6.788;2024-01-27T13:03:27;16.13;;;5.30;;
9102;SDS011;4587;51.434;6.788;2024-01-27T13:05:54;14.20;;;5.23;;
9102;SDS011;4587;51.434;6.788;2024-01-27T13:08:20;13.70;;;4.77;;
9102;SDS011;4587;51.434;6.788;2024-01-27T13:10:45;15.57;;;5.10;;
9102;SDS011;4587;51.434;6.788;2024-01-27T13:13:11;14.83;;;4.77;;
9102;SDS011;4587;51.434;6.788;2024-01-27T13:15:36;12.93;;;4.07;;
9102;SDS011;4587;51.434;6.788;2024-01-27T13:18:02;13.90;;;4.60;;
9102;SDS011;4587;51.434;6.788;2024-01-27T13:20:28;15.00;;;5.07;;
9102;SDS011;4587;51.434;6.788;2024-01-27T13:22:53;13.33;;;4.80;;
9102;SDS011;4587;51.434;6.788;2024-01-27T13:25:19;13.83;;;4.63;;
9102;SDS011;4587;51.434;6.788;2024-01-27T13:27:45;14.10;;;4.77;;
9102;SDS011;4587;51.434;6.788;2024-01-27T13:30:11;14.17;;;4.50;;
9102;SDS011;4587;51.434;6.788;2024-01-27T13:32:38;9.53;;;3.80;;
9102;SDS011;4587;51.434;6.788;2024-01-27T13:35:03;12.13;;;5.07;;
9102;SDS011;4587;51.434;6.788;2024-01-27T13:37:30;13.97;;;4.80;;
9102;SDS011;4587;51.434;6.788;2024-01-27T13:39:58;14.23;;;4.23;;
9102;SDS011;4587;51.434;6.788;2024-01-27T13:42:24;13.03;;;3.90;;
9102;SDS011;4587;51.434;6.788;2024-01-27T13:44:50;13.03;;;4.17;;
9102;SDS011;4587;51.434;6.788;2024-01-27T13:47:15;13.07;;;4.10;;
9102;SDS011;4587;51.434;6.788;2024-01-27T13:49:41;15.50;;;4.47;;
9102;SDS011;4587;51.434;6.788;2024-01-27T13:52:07;10.50;;;3.80;;
9102;SDS011;4587;51.434;6.788;2024-01-27T13:54:32;9.83;;;3.40;;
9102;SDS011;4587;51.434;6.788;2024-01-27T13:56:59;13.07;;;3.93;;
9102;SDS011;4587;51.434;6.788;2024-01-27T13:59:26;11.37;;;4.07;;
9102;SDS011;4587;51.434;6.788;2024-01-27T14:01:51;12.17;;;3.57;;
9102;SDS011;4587;51.434;6.788;2024-01-27T14:04:18;11.33;;;3.60;;
9102;SDS011;4587;51.434;6.788;2024-01-27T14:06:43;11.20;;;3.60;;
9102;SDS011;4587;51.434;6.788;2024-01-27T14:09:09;13.33;;;3.90;;
9102;SDS011;4587;51.434;6.788;2024-01-27T14:11:35;9.83;;;3.80;;
9102;SDS011;4587;51.434;6.788;2024-01-27T14:14:01;10.03;;;3.63;;
9102;SDS011;4587;51.434;6.788;2024-01-27T14:16:26;10.97;;;3.93;;
9102;SDS011;4587;51.434;6.788;2024-01-27T14:18:53;14.83;;;4.10;;
9102;SDS011;4587;51.434;6.788;2024-01-27T14:21:19;13.50;;;4.00;;
9102;SDS011;4587;51.434;6.788;2024-01-27T14:23:44;14.13;;;3.77;;
9102;SDS011;4587;51.434;6.788;2024-01-27T14:26:10;16.40;;;3.97;;
9102;SDS011;4587;51.434;6.788;2024-01-27T14:28:42;13.00;;;3.97;;
9102;SDS011;4587;51.434;6.788;2024-01-27T14:31:09;9.57;;;3.63;;
9102;SDS011;4587;51.434;6.788;2024-01-27T14:33:35;13.73;;;3.67;;
9102;SDS011;4587;51.434;6.788;2024-01-27T14:36:00;15.73;;;4.53;;
9102;SDS011;4587;51.434;6.788;2024-01-27T14:38:26;12.27;;;3.93;;
9102;SDS011;4587;51.434;6.788;2024-01-27T14:40:52;13.47;;;4.20;;
9102;SDS011;4587;51.434;6.788;2024-01-27T14:43:17;15.57;;;3.90;;
9102;SDS011;4587;51.434;6.788;2024-01-27T14:45:46;10.53;;;3.67;;
9102;SDS011;4587;51.434;6.788;2024-01-27T14:48:12;13.97;;;3.87;;
9102;SDS011;4587;51.434;6.788;2024-01-27T14:50:38;16.30;;;4.37;;
9102;SDS011;4587;51.434;6.788;2024-01-27T14:53:04;14.47;;;3.80;;
9102;SDS011;4587;51.434;6.788;2024-01-27T14:55:31;15.30;;;4.30;;
9102;SDS011;4587;51.434;6.788;2024-01-27T14:57:59;12.10;;;3.73;;
9102;SDS011;4587;51.434;6.788;2024-01-27T15:00:24;11.20;;;3.83;;